sensor_id;sensor_type;location;lat;lon;timestamp;pressure;altitude;pressure_sealevel;temperature;humidity
66385;BME280;53426;55.872;37.462;2024-01-25T00:02:04;97867.22;;;0.07;83.91
66385;BME280;53426;55.872;37.462;2024-01-25T00:04:30;97855.25;;;-0.08;84.69
66385;BME280;53426;55.872;37.462;2024-01-25T00:06:56;97967.25;;;0.66;84.55
66385;BME280;53426;55.872;37.462;2024-01-25T00:09:22;97898.34;;;0.21;85.05
66385;BME280;53426;55.872;37.462;2024-01-25T00:11:48;97930.09;;;0.52;85.05
66385;BME280;53426;55.872;37.462;2024-01-25T00:14:14;97924.69;;;0.42;85.05
66385;BME280;53426;55.872;37.462;2024-01-25T00:16:42;97946.41;;;0.66;85.75
66385;BME280;53426;55.872;37.462;2024-01-25T00:19:09;97918.63;;;0.54;85.68
66385;BME280;53426;55.872;37.462;2024-01-25T00:21:35;97898.00;;;0.38;85.85
66385;BME280;53426;55.872;37.462;2024-01-25T00:24:02;97875.63;;;0.23;85.47
66385;BME280;53426;55.872;37.462;2024-01-25T00:26:28;97904.28;;;0.49;86.00
66385;BME280;53426;55.872;37.462;2024-01-25T00:28:53;97882.00;;;0.32;86.09
66385;BME280;53426;55.872;37.462;2024-01-25T00:31:19;97933.72;;;0.62;86.51
66385;BME280;53426;55.872;37.462;2024-01-25T00:33:47;97923.94;;;0.53;86.22
66385;BME280;53426;55.872;37.462;2024-01-25T00:36:13;97929.94;;;0.66;86.79
66385;BME280;53426;55.872;37.462;2024-01-25T00:38:40;97858.66;;;0.30;86.65
66385;BME280;53426;55.872;37.462;2024-01-25T00:41:08;97914.22;;;0.67;86.52
66385;BME280;53426;55.872;37.462;2024-01-25T00:43:36;97891.03;;;0.52;86.52
66385;BME280;53426;55.872;37.462;2024-01-25T00:46:03;97922.13;;;0.66;87.10
66385;BME280;53426;55.872;37.462;2024-01-25T00:48:29;97880.09;;;0.47;86.67
66385;BME280;53426;55.872;37.462;2024-01-25T00:50:55;97837.84;;;0.30;86.86
66385;BME280;53426;55.872;37.462;2024-01-25T00:53:22;97852.41;;;0.33;86.84
66385;BME280;53426;55.872;37.462;2024-01-25T00:55:52;97878.53;;;0.44;86.81
66385;BME280;53426;55.872;37.462;2024-01-25T00:58:19;97898.25;;;0.72;86.90
66385;BME280;53426;55.872;37.462;2024-01-25T01:00:45;97871.22;;;0.62;86.78
66385;BME280;53426;55.872;37.462;2024-01-25T01:03:12;97690.50;;;-0.45;86.58
66385;BME280;53426;55.872;37.462;2024-01-25T01:05:50;97798.72;;;0.19;86.46
66385;BME280;53426;55.872;37.462;2024-01-25T01:08:32;97857.16;;;0.64;86.22
66385;BME280;53426;55.872;37.462;2024-01-25T01:10:59;97881.16;;;0.80;86.38
66385;BME280;53426;55.872;37.462;2024-01-25T01:13:25;97857.56;;;0.71;86.38
66385;BME280;53426;55.872;37.462;2024-01-25T01:15:53;97780.69;;;0.29;86.47
66385;BME280;53426;55.872;37.462;2024-01-25T01:18:19;97852.34;;;0.71;86.31
66385;BME280;53426;55.872;37.462;2024-01-25T01:20:45;97845.56;;;0.68;85.91
66385;BME280;53426;55.872;37.462;2024-01-25T01:23:11;97840.63;;;0.53;85.83
66385;BME280;53426;55.872;37.462;2024-01-25T01:25:37;97846.91;;;0.74;85.88
66385;BME280;53426;55.872;37.462;2024-01-25T01:28:09;97837.53;;;0.71;85.71
66385;BME280;53426;55.872;37.462;2024-01-25T01:30:35;97862.72;;;0.83;85.44
66385;BME280;53426;55.872;37.462;2024-01-25T01:33:08;97842.97;;;0.68;85.37
66385;BME280;53426;55.872;37.462;2024-01-25T01:35:34;97854.78;;;0.85;85.21
66385;BME280;53426;55.872;37.462;2024-01-25T01:38:00;97663.25;;;-0.39;84.82
66385;BME280;53426;55.872;37.462;2024-01-25T01:40:28;97849.69;;;0.83;84.49
66385;BME280;53426;55.872;37.462;2024-01-25T01:43:00;97820.34;;;0.69;84.60
66385;BME280;53426;55.872;37.462;2024-01-25T01:45:27;97783.44;;;0.51;84.25
66385;BME280;53426;55.872;37.462;2024-01-25T01:47:55;97852.91;;;0.87;84.27
66385;BME280;53426;55.872;37.462;2024-01-25T01:50:22;97834.16;;;0.82;83.79
66385;BME280;53426;55.872;37.462;2024-01-25T01:52:50;97826.34;;;0.82;83.53
66385;BME280;53426;55.872;37.462;2024-01-25T01:55:17;97837.03;;;0.90;83.49
66385;BME280;53426;55.872;37.462;2024-01-25T02:00:37;97814.66;;;0.64;82.63
66385;BME280;53426;55.872;37.462;2024-01-25T02:03:04;97637.53;;;-0.31;82.45
66385;BME280;53426;55.872;37.462;2024-01-25T02:05:31;97792.13;;;0.63;82.12
66385;BME280;53426;55.872;37.462;2024-01-25T02:07:57;97705.13;;;0.18;82.30
66385;BME280;53426;55.872;37.462;2024-01-25T02:10:49;97831.41;;;0.96;82.37
66385;BME280;53426;55.872;37.462;2024-01-25T02:13:31;97701.69;;;0.17;81.53
66385;BME280;53426;55.872;37.462;2024-01-25T02:15:57;97739.78;;;0.31;81.25
66385;BME280;53426;55.872;37.462;2024-01-25T02:18:46;97708.50;;;0.07;81.58
66385;BME280;53426;55.872;37.462;2024-01-25T02:21:15;97782.94;;;0.46;81.76
66385;BME280;53426;55.872;37.462;2024-01-25T02:23:41;97797.13;;;0.66;81.34
66385;BME280;53426;55.872;37.462;2024-01-25T02:26:07;97815.97;;;0.69;81.29
66385;BME280;53426;55.872;37.462;2024-01-25T02:28:33;97731.22;;;0.05;81.50
66385;BME280;53426;55.872;37.462;2024-01-25T02:31:01;97830.59;;;0.83;81.29
66385;BME280;53426;55.872;37.462;2024-01-25T02:33:28;97785.69;;;0.56;81.61
66385;BME280;53426;55.872;37.462;2024-01-25T02:35:54;97727.94;;;0.14;81.59
66385;BME280;53426;55.872;37.462;2024-01-25T02:38:45;97836.88;;;0.80;81.63
66385;BME280;53426;55.872;37.462;2024-01-25T02:41:11;97829.41;;;0.76;81.69
66385;BME280;53426;55.872;37.462;2024-01-25T02:43:37;97737.94;;;0.20;81.69
66385;BME280;53426;55.872;37.462;2024-01-25T02:46:03;97832.97;;;0.62;82.01
66385;BME280;53426;55.872;37.462;2024-01-25T02:48:30;97755.00;;;0.12;82.49
66385;BME280;53426;55.872;37.462;2024-01-25T02:51:00;97684.75;;;-0.37;82.37
66385;BME280;53426;55.872;37.462;2024-01-25T02:53:35;97601.38;;;-0.83;82.75
66385;BME280;53426;55.872;37.462;2024-01-25T02:56:01;97629.56;;;-0.54;83.17
66385;BME280;53426;55.872;37.462;2024-01-25T02:58:27;97712.59;;;-0.02;83.18
66385;BME280;53426;55.872;37.462;2024-01-25T03:00:53;97781.94;;;0.23;83.23
66385;BME280;53426;55.872;37.462;2024-01-25T03:03:19;97832.81;;;0.53;83.75
66385;BME280;53426;55.872;37.462;2024-01-25T03:05:45;97612.25;;;-0.66;83.55
66385;BME280;53426;55.872;37.462;2024-01-25T03:08:11;97767.75;;;0.27;83.29
66385;BME280;53426;55.872;37.462;2024-01-25T03:10:37;97804.88;;;0.55;83.67
66385;BME280;53426;55.872;37.462;2024-01-25T03:13:15;97704.53;;;-0.22;83.40
66385;BME280;53426;55.872;37.462;2024-01-25T03:15:45;97815.09;;;0.58;84.01
66385;BME280;53426;55.872;37.462;2024-01-25T03:18:32;97827.25;;;0.57;83.78
66385;BME280;53426;55.872;37.462;2024-01-25T03:20:58;97629.16;;;-0.48;83.77
66385;BME280;53426;55.872;37.462;2024-01-25T03:23:24;97783.00;;;0.57;83.85
66385;BME280;53426;55.872;37.462;2024-01-25T03:25:54;97690.38;;;0.06;83.74
66385;BME280;53426;55.872;37.462;2024-01-25T03:28:19;97659.16;;;-0.31;83.87
66385;BME280;53426;55.872;37.462;2024-01-25T03:30:46;97822.66;;;0.61;83.77
66385;BME280;53426;55.872;37.462;2024-01-25T03:33:11;97685.00;;;-0.04;84.08
66385;BME280;53426;55.872;37.462;2024-01-25T03:35:39;97752.72;;;0.20;84.29
66385;BME280;53426;55.872;37.462;2024-01-25T03:38:05;97705.50;;;0.00;83.67
66385;BME280;53426;55.872;37.462;2024-01-25T03:40:58;97790.47;;;0.62;83.69
66385;BME280;53426;55.872;37.462;2024-01-25T03:43:49;97783.84;;;0.58;83.38
66385;BME280;53426;55.872;37.462;2024-01-25T03:46:40;97782.41;;;0.54;83.36
66385;BME280;53426;55.872;37.462;2024-01-25T03:49:15;97772.75;;;0.43;83.45
66385;BME280;53426;55.872;37.462;2024-01-25T03:51:43;97662.91;;;-0.22;83.13
66385;BME280;53426;55.872;37.462;2024-01-25T03:55:16;97702.34;;;0.08;83.05
66385;BME280;53426;55.872;37.462;2024-01-25T03:58:14;97773.63;;;0.55;83.06
66385;BME280;53426;55.872;37.462;2024-01-25T04:00:40;97780.38;;;0.57;83.32
66385;BME280;53426;55.872;37.462;2024-01-25T04:03:08;97692.47;;;0.00;82.82
66385;BME280;53426;55.872;37.462;2024-01-25T04:05:34;97771.47;;;0.49;82.89
66385;BME280;53426;55.872;37.462;2024-01-25T04:08:07;97709.34;;;-0.05;83.25
66385;BME280;53426;55.872;37.462;2024-01-25T04:10:33;97717.47;;;0.03;83.10
66385;BME280;53426;55.872;37.462;2024-01-25T04:12:59;97706.97;;;0.05;82.96
66385;BME280;53426;55.872;37.462;2024-01-25T04:15:33;97698.66;;;-0.01;83.36
66385;BME280;53426;55.872;37.462;2024-01-25T04:17:59;97691.19;;;-0.18;83.50
66385;BME280;53426;55.872;37.462;2024-01-25T04:20:27;97660.25;;;-0.33;83.48
66385;BME280;53426;55.872;37.462;2024-01-25T04:25:49;97782.94;;;0.33;83.53
66385;BME280;53426;55.872;37.462;2024-01-25T04:28:15;97765.78;;;0.44;83.74
66385;BME280;53426;55.872;37.462;2024-01-25T04:30:41;97786.91;;;0.39;83.97
66385;BME280;53426;55.872;37.462;2024-01-25T04:33:07;97754.44;;;0.32;83.93
66385;BME280;53426;55.872;37.462;2024-01-25T04:35:33;97730.06;;;0.09;83.54
66385;BME280;53426;55.872;37.462;2024-01-25T04:37:58;97765.78;;;0.44;83.78
66385;BME280;53426;55.872;37.462;2024-01-25T04:40:24;97776.56;;;0.50;83.76
66385;BME280;53426;55.872;37.462;2024-01-25T04:42:50;97760.66;;;0.42;83.43
66385;BME280;53426;55.872;37.462;2024-01-25T04:45:16;97724.41;;;0.15;83.23
66385;BME280;53426;55.872;37.462;2024-01-25T04:47:42;97772.75;;;0.43;83.48
66385;BME280;53426;55.872;37.462;2024-01-25T04:50:11;97548.47;;;-0.95;83.39
66385;BME280;53426;55.872;37.462;2024-01-25T04:58:26;97644.63;;;-0.33;82.78
66385;BME280;53426;55.872;37.462;2024-01-25T05:04:43;97681.19;;;-0.11;83.15
66385;BME280;53426;55.872;37.462;2024-01-25T05:07:31;97718.72;;;-0.03;82.75
66385;BME280;53426;55.872;37.462;2024-01-25T05:19:07;97782.13;;;0.33;82.82
66385;BME280;53426;55.872;37.462;2024-01-25T05:21:33;97637.28;;;-0.52;82.54
66385;BME280;53426;55.872;37.462;2024-01-25T05:27:08;97622.09;;;-0.58;82.03
66385;BME280;53426;55.872;37.462;2024-01-25T05:29:37;97580.69;;;-0.85;82.69
66385;BME280;53426;55.872;37.462;2024-01-25T05:32:14;97751.84;;;0.32;82.69
66385;BME280;53426;55.872;37.462;2024-01-25T05:34:43;97648.84;;;-0.56;82.45
66385;BME280;53426;55.872;37.462;2024-01-25T05:41:09;97755.06;;;-0.01;82.53
66385;BME280;53426;55.872;37.462;2024-01-25T05:43:35;97621.31;;;-0.71;82.60
66385;BME280;53426;55.872;37.462;2024-01-25T05:46:05;97723.00;;;-0.02;82.81
66385;BME280;53426;55.872;37.462;2024-01-25T05:48:32;97729.63;;;0.03;82.62
66385;BME280;53426;55.872;37.462;2024-01-25T05:51:03;97735.91;;;0.00;82.41
66385;BME280;53426;55.872;37.462;2024-01-25T05:56:54;97774.13;;;0.23;81.96
66385;BME280;53426;55.872;37.462;2024-01-25T05:59:45;97764.22;;;0.28;82.04
66385;BME280;53426;55.872;37.462;2024-01-25T06:02:11;97691.00;;;-0.27;81.45
66385;BME280;53426;55.872;37.462;2024-01-25T06:04:37;97706.97;;;-0.08;81.40
66385;BME280;53426;55.872;37.462;2024-01-25T06:07:03;97581.31;;;-0.94;81.15
66385;BME280;53426;55.872;37.462;2024-01-25T06:09:29;97689.13;;;-0.25;81.00
66385;BME280;53426;55.872;37.462;2024-01-25T06:11:57;97689.78;;;-0.34;80.89
66385;BME280;53426;55.872;37.462;2024-01-25T06:14:24;97671.84;;;-0.26;81.17
66385;BME280;53426;55.872;37.462;2024-01-25T06:16:50;97603.63;;;-0.66;80.54
66385;BME280;53426;55.872;37.462;2024-01-25T06:19:19;97716.88;;;-0.01;80.94
66385;BME280;53426;55.872;37.462;2024-01-25T06:33:08;97730.03;;;0.22;79.73
66385;BME280;53426;55.872;37.462;2024-01-25T06:36:28;97750.16;;;0.44;79.86
66385;BME280;53426;55.872;37.462;2024-01-25T06:38:59;97676.44;;;-0.17;79.81
66385;BME280;53426;55.872;37.462;2024-01-25T06:41:27;97743.13;;;0.20;79.60
66385;BME280;53426;55.872;37.462;2024-01-25T06:43:56;97715.59;;;0.05;79.33
66385;BME280;53426;55.872;37.462;2024-01-25T06:52:20;97553.25;;;-1.14;79.50
66385;BME280;53426;55.872;37.462;2024-01-25T06:54:46;97756.66;;;0.25;79.72
66385;BME280;53426;55.872;37.462;2024-01-25T06:57:12;97756.94;;;0.33;79.65
66385;BME280;53426;55.872;37.462;2024-01-25T06:59:56;97680.88;;;-0.19;79.06
66385;BME280;53426;55.872;37.462;2024-01-25T07:02:22;97776.63;;;0.25;79.16
66385;BME280;53426;55.872;37.462;2024-01-25T07:04:48;97750.00;;;0.21;78.94
66385;BME280;53426;55.872;37.462;2024-01-25T07:07:14;97625.97;;;-0.64;78.98
66385;BME280;53426;55.872;37.462;2024-01-25T07:09:40;97726.22;;;-0.11;79.05
66385;BME280;53426;55.872;37.462;2024-01-25T07:12:06;97759.41;;;-0.02;79.22
66385;BME280;53426;55.872;37.462;2024-01-25T07:14:32;97763.97;;;0.20;79.49
66385;BME280;53426;55.872;37.462;2024-01-25T07:16:58;97756.56;;;0.14;79.19
66385;BME280;53426;55.872;37.462;2024-01-25T07:19:24;97705.53;;;-0.12;78.98
66385;BME280;53426;55.872;37.462;2024-01-25T07:21:50;97692.69;;;-0.39;79.12
66385;BME280;53426;55.872;37.462;2024-01-25T07:24:16;97646.56;;;-0.61;79.32
66385;BME280;53426;55.872;37.462;2024-01-25T07:26:45;97784.53;;;0.23;79.50
66385;BME280;53426;55.872;37.462;2024-01-25T07:29:10;97767.06;;;0.25;78.90
66385;BME280;53426;55.872;37.462;2024-01-25T07:31:36;97771.34;;;0.26;78.46
66385;BME280;53426;55.872;37.462;2024-01-25T07:34:03;97631.03;;;-0.50;78.72
66385;BME280;53426;55.872;37.462;2024-01-25T07:36:31;97584.25;;;-0.99;78.40
66385;BME280;53426;55.872;37.462;2024-01-25T07:38:57;97733.47;;;0.10;78.68
66385;BME280;53426;55.872;37.462;2024-01-25T07:41:23;97761.13;;;0.23;78.49
66385;BME280;53426;55.872;37.462;2024-01-25T07:43:49;97679.78;;;-0.28;78.39
66385;BME280;53426;55.872;37.462;2024-01-25T07:46:22;97748.44;;;0.19;78.51
66385;BME280;53426;55.872;37.462;2024-01-25T07:48:50;97695.34;;;-0.15;78.29
66385;BME280;53426;55.872;37.462;2024-01-25T07:51:16;97713.94;;;0.04;78.51
66385;BME280;53426;55.872;37.462;2024-01-25T07:53:42;97763.63;;;0.25;78.58
66385;BME280;53426;55.872;37.462;2024-01-25T07:56:08;97768.59;;;0.28;78.30
66385;BME280;53426;55.872;37.462;2024-01-25T07:58:37;97691.22;;;-0.30;77.88
66385;BME280;53426;55.872;37.462;2024-01-25T08:01:04;97753.66;;;0.06;77.74
66385;BME280;53426;55.872;37.462;2024-01-25T08:03:32;97756.25;;;0.06;77.91
66385;BME280;53426;55.872;37.462;2024-01-25T08:06:02;97762.28;;;0.19;77.74
66385;BME280;53426;55.872;37.462;2024-01-25T08:08:28;97716.97;;;-0.02;77.66
66385;BME280;53426;55.872;37.462;2024-01-25T08:10:54;97712.00;;;-0.18;77.93
66385;BME280;53426;55.872;37.462;2024-01-25T08:13:20;97756.97;;;0.21;77.79
66385;BME280;53426;55.872;37.462;2024-01-25T08:15:47;97770.59;;;0.24;77.47
66385;BME280;53426;55.872;37.462;2024-01-25T08:18:13;97770.38;;;0.27;77.61
66385;BME280;53426;55.872;37.462;2024-01-25T08:20:39;97773.50;;;0.32;77.46
66385;BME280;53426;55.872;37.462;2024-01-25T08:23:05;97753.47;;;0.33;77.28
66385;BME280;53426;55.872;37.462;2024-01-25T08:25:34;97759.84;;;0.29;76.74
66385;BME280;53426;55.872;37.462;2024-01-25T08:28:00;97748.09;;;0.23;77.09
66385;BME280;53426;55.872;37.462;2024-01-25T08:30:26;97762.97;;;0.34;76.62
66385;BME280;53426;55.872;37.462;2024-01-25T08:32:52;97738.56;;;0.11;76.48
66385;BME280;53426;55.872;37.462;2024-01-25T08:35:18;97750.38;;;0.28;75.84
66385;BME280;53426;55.872;37.462;2024-01-25T08:38:32;97700.09;;;-0.09;76.31
66385;BME280;53426;55.872;37.462;2024-01-25T08:40:58;97770.56;;;0.37;76.44
66385;BME280;53426;55.872;37.462;2024-01-25T08:46:43;97685.75;;;-0.15;76.26
66385;BME280;53426;55.872;37.462;2024-01-25T08:49:09;97769.31;;;0.43;75.95
66385;BME280;53426;55.872;37.462;2024-01-25T08:51:41;97762.44;;;0.41;75.81
66385;BME280;53426;55.872;37.462;2024-01-25T08:54:07;97613.28;;;-0.56;75.68
66385;BME280;53426;55.872;37.462;2024-01-25T08:56:34;97679.19;;;-0.08;75.68
66385;BME280;53426;55.872;37.462;2024-01-25T08:59:00;97680.13;;;-0.09;75.76
66385;BME280;53426;55.872;37.462;2024-01-25T09:04:53;97764.44;;;0.62;75.88
66385;BME280;53426;55.872;37.462;2024-01-25T09:07:19;97632.13;;;-0.28;75.34
66385;BME280;53426;55.872;37.462;2024-01-25T09:10:06;97618.13;;;-0.38;74.66
66385;BME280;53426;55.872;37.462;2024-01-25T09:13:03;97764.66;;;0.59;75.47
66385;BME280;53426;55.872;37.462;2024-01-25T09:15:29;97773.34;;;0.47;75.52
66385;BME280;53426;55.872;37.462;2024-01-25T09:17:55;97666.84;;;-0.17;74.75
66385;BME280;53426;55.872;37.462;2024-01-25T09:20:21;97795.13;;;0.46;75.20
66385;BME280;53426;55.872;37.462;2024-01-25T09:22:47;97771.78;;;0.44;75.53
66385;BME280;53426;55.872;37.462;2024-01-25T09:25:13;97692.81;;;-0.04;75.18
66385;BME280;53426;55.872;37.462;2024-01-25T09:27:39;97580.94;;;-0.64;75.09
66385;BME280;53426;55.872;37.462;2024-01-25T09:30:05;97747.69;;;0.29;75.00
66385;BME280;53426;55.872;37.462;2024-01-25T09:32:34;97690.94;;;-0.02;75.03
66385;BME280;53426;55.872;37.462;2024-01-25T09:35:00;97756.16;;;0.20;75.17
66385;BME280;53426;55.872;37.462;2024-01-25T09:37:26;97684.91;;;-0.03;75.30
66385;BME280;53426;55.872;37.462;2024-01-25T09:39:52;97717.53;;;0.14;75.42
66385;BME280;53426;55.872;37.462;2024-01-25T09:42:25;97762.94;;;0.47;75.07
66385;BME280;53426;55.872;37.462;2024-01-25T09:44:52;97731.63;;;0.35;75.30
66385;BME280;53426;55.872;37.462;2024-01-25T09:47:20;97707.19;;;0.25;75.00
66385;BME280;53426;55.872;37.462;2024-01-25T09:49:47;97745.69;;;0.57;75.25
66385;BME280;53426;55.872;37.462;2024-01-25T09:52:14;97741.28;;;0.46;75.00
66385;BME280;53426;55.872;37.462;2024-01-25T09:54:42;97748.31;;;0.57;75.19
66385;BME280;53426;55.872;37.462;2024-01-25T09:57:22;97745.38;;;0.37;74.91
66385;BME280;53426;55.872;37.462;2024-01-25T09:59:49;97746.13;;;0.51;75.07
66385;BME280;53426;55.872;37.462;2024-01-25T10:02:16;97692.34;;;0.15;75.10
66385;BME280;53426;55.872;37.462;2024-01-25T10:04:42;97710.13;;;0.21;74.81
66385;BME280;53426;55.872;37.462;2024-01-25T10:07:13;97743.28;;;0.43;75.15
66385;BME280;53426;55.872;37.462;2024-01-25T10:09:41;97707.47;;;0.33;74.91
66385;BME280;53426;55.872;37.462;2024-01-25T10:12:08;97677.97;;;0.22;74.83
66385;BME280;53426;55.872;37.462;2024-01-25T10:14:42;97742.00;;;0.48;74.86
66385;BME280;53426;55.872;37.462;2024-01-25T10:17:15;97750.66;;;0.49;74.74
66385;BME280;53426;55.872;37.462;2024-01-25T10:19:44;97703.38;;;0.06;74.61
66385;BME280;53426;55.872;37.462;2024-01-25T10:25:56;97743.78;;;0.48;75.11
66385;BME280;53426;55.872;37.462;2024-01-25T10:28:24;97763.97;;;0.44;75.40
66385;BME280;53426;55.872;37.462;2024-01-25T10:30:51;97667.09;;;0.04;74.97
66385;BME280;53426;55.872;37.462;2024-01-25T10:33:17;97703.94;;;0.34;75.35
66385;BME280;53426;55.872;37.462;2024-01-25T10:38:44;97525.19;;;-0.84;74.80
66385;BME280;53426;55.872;37.462;2024-01-25T10:41:13;97767.47;;;0.56;75.09
66385;BME280;53426;55.872;37.462;2024-01-25T10:43:40;97741.44;;;0.56;75.50
66385;BME280;53426;55.872;37.462;2024-01-25T10:46:10;97638.69;;;0.01;75.32
66385;BME280;53426;55.872;37.462;2024-01-25T10:48:38;97657.78;;;0.13;74.94
66385;BME280;53426;55.872;37.462;2024-01-25T10:51:11;97566.88;;;-0.49;75.11
66385;BME280;53426;55.872;37.462;2024-01-25T10:53:39;97743.44;;;0.76;75.68
66385;BME280;53426;55.872;37.462;2024-01-25T10:56:06;97674.41;;;0.47;74.88
66385;BME280;53426;55.872;37.462;2024-01-25T10:58:32;97743.34;;;0.89;74.90
66385;BME280;53426;55.872;37.462;2024-01-25T11:01:01;97738.28;;;0.87;74.72
66385;BME280;53426;55.872;37.462;2024-01-25T11:03:54;97757.84;;;0.93;74.63
66385;BME280;53426;55.872;37.462;2024-01-25T11:06:21;97710.09;;;0.57;74.76
66385;BME280;53426;55.872;37.462;2024-01-25T11:08:48;97719.28;;;0.74;75.05
66385;BME280;53426;55.872;37.462;2024-01-25T11:11:14;97669.06;;;0.37;75.17
66385;BME280;53426;55.872;37.462;2024-01-25T11:14:00;97682.66;;;0.40;75.08
66385;BME280;53426;55.872;37.462;2024-01-25T11:20:22;97763.09;;;0.80;74.72
66385;BME280;53426;55.872;37.462;2024-01-25T11:23:04;97752.78;;;0.78;75.00
66385;BME280;53426;55.872;37.462;2024-01-25T11:25:35;97690.84;;;0.23;75.29
66385;BME280;53426;55.872;37.462;2024-01-25T11:28:29;97525.47;;;-0.76;75.16
66385;BME280;53426;55.872;37.462;2024-01-25T11:30:55;97679.59;;;0.23;75.55
66385;BME280;53426;55.872;37.462;2024-01-25T11:33:21;97682.53;;;0.18;75.90
66385;BME280;53426;55.872;37.462;2024-01-25T11:35:56;97616.72;;;-0.19;75.99
66385;BME280;53426;55.872;37.462;2024-01-25T11:38:22;97757.34;;;0.64;76.28
66385;BME280;53426;55.872;37.462;2024-01-25T11:40:48;97748.38;;;0.68;76.13
66385;BME280;53426;55.872;37.462;2024-01-25T11:43:14;97758.72;;;0.57;76.47
66385;BME280;53426;55.872;37.462;2024-01-25T11:45:40;97753.50;;;0.57;76.45
66385;BME280;53426;55.872;37.462;2024-01-25T11:48:08;97767.38;;;0.57;76.63
66385;BME280;53426;55.872;37.462;2024-01-25T11:50:34;97686.41;;;0.13;76.63
66385;BME280;53426;55.872;37.462;2024-01-25T11:55:48;97730.59;;;0.38;76.65
66385;BME280;53426;55.872;37.462;2024-01-25T11:58:14;97579.50;;;-0.56;76.77
66385;BME280;53426;55.872;37.462;2024-01-25T12:00:40;97691.41;;;0.16;76.97
66385;BME280;53426;55.872;37.462;2024-01-25T12:03:07;97725.16;;;0.41;76.81
66385;BME280;53426;55.872;37.462;2024-01-25T12:05:36;97674.47;;;0.10;76.96
66385;BME280;53426;55.872;37.462;2024-01-25T12:14:09;97582.41;;;-0.60;77.53
66385;BME280;53426;55.872;37.462;2024-01-25T12:16:38;97698.84;;;-0.04;77.84
66385;BME280;53426;55.872;37.462;2024-01-25T12:19:05;97536.09;;;-0.92;77.86
66385;BME280;53426;55.872;37.462;2024-01-25T12:21:44;97776.94;;;0.57;78.19
66385;BME280;53426;55.872;37.462;2024-01-25T12:28:13;97732.84;;;0.06;78.48
66385;BME280;53426;55.872;37.462;2024-01-25T12:30:40;97687.25;;;-0.23;78.45
66385;BME280;53426;55.872;37.462;2024-01-25T12:36:50;97771.50;;;0.36;78.88
66385;BME280;53426;55.872;37.462;2024-01-25T12:39:21;97636.88;;;-0.59;78.71
66385;BME280;53426;55.872;37.462;2024-01-25T12:44:34;97552.75;;;-1.19;78.83
66385;BME280;53426;55.872;37.462;2024-01-25T12:47:04;97776.97;;;0.20;79.01
66385;BME280;53426;55.872;37.462;2024-01-25T12:49:59;97557.94;;;-1.19;79.00
66385;BME280;53426;55.872;37.462;2024-01-25T12:52:25;97693.63;;;-0.40;79.43
66385;BME280;53426;55.872;37.462;2024-01-25T12:54:52;97701.94;;;-0.22;78.77
66385;BME280;53426;55.872;37.462;2024-01-25T12:57:29;97670.13;;;-0.38;79.04
66385;BME280;53426;55.872;37.462;2024-01-25T12:59:55;97789.56;;;0.26;79.22
66385;BME280;53426;55.872;37.462;2024-01-25T13:02:52;97795.25;;;0.31;78.83
66385;BME280;53426;55.872;37.462;2024-01-25T13:05:20;97752.81;;;0.06;79.02
66385;BME280;53426;55.872;37.462;2024-01-25T13:07:48;97654.53;;;-0.64;79.26
66385;BME280;53426;55.872;37.462;2024-01-25T13:10:14;97539.78;;;-1.19;79.49
66385;BME280;53426;55.872;37.462;2024-01-25T13:12:41;97770.75;;;0.10;79.32
66385;BME280;53426;55.872;37.462;2024-01-25T13:15:07;97670.56;;;-0.57;79.51
66385;BME280;53426;55.872;37.462;2024-01-25T13:17:35;97779.56;;;0.20;79.81
66385;BME280;53426;55.872;37.462;2024-01-25T13:20:02;97556.59;;;-1.25;79.87
66385;BME280;53426;55.872;37.462;2024-01-25T13:22:35;97742.56;;;-0.09;80.14
66385;BME280;53426;55.872;37.462;2024-01-25T13:25:02;97726.13;;;-0.09;79.55
66385;BME280;53426;55.872;37.462;2024-01-25T13:27:32;97734.16;;;-0.12;79.29
66385;BME280;53426;55.872;37.462;2024-01-25T13:33:05;97812.16;;;0.26;79.35
66385;BME280;53426;55.872;37.462;2024-01-25T13:35:31;97634.72;;;-0.90;79.74
66385;BME280;53426;55.872;37.462;2024-01-25T13:37:57;97753.63;;;-0.30;79.38
66385;BME280;53426;55.872;37.462;2024-01-25T13:40:26;97680.75;;;-0.67;79.92
66385;BME280;53426;55.872;37.462;2024-01-25T13:43:18;97808.91;;;0.22;79.73
66385;BME280;53426;55.872;37.462;2024-01-25T13:45:44;97759.84;;;-0.08;79.87
66385;BME280;53426;55.872;37.462;2024-01-25T13:48:10;97816.00;;;0.20;80.10
66385;BME280;53426;55.872;37.462;2024-01-25T13:50:36;97819.94;;;0.26;80.12
66385;BME280;53426;55.872;37.462;2024-01-25T13:53:02;97799.66;;;0.18;80.52
66385;BME280;53426;55.872;37.462;2024-01-25T13:55:28;97821.91;;;0.35;80.65
66385;BME280;53426;55.872;37.462;2024-01-25T13:57:57;97809.34;;;0.16;80.39
66385;BME280;53426;55.872;37.462;2024-01-25T14:00:23;97702.34;;;-0.41;80.30
66385;BME280;53426;55.872;37.462;2024-01-25T14:02:49;97679.50;;;-0.61;80.35
66385;BME280;53426;55.872;37.462;2024-01-25T14:05:15;97824.75;;;0.19;80.62
66385;BME280;53426;55.872;37.462;2024-01-25T14:07:41;97800.94;;;0.00;80.24
66385;BME280;53426;55.872;37.462;2024-01-25T14:10:17;97768.50;;;-0.20;80.25
66385;BME280;53426;55.872;37.462;2024-01-25T14:14:24;97695.19;;;-0.75;80.66
66385;BME280;53426;55.872;37.462;2024-01-25T14:16:29;97782.84;;;-0.39;80.58
66385;BME280;53426;55.872;37.462;2024-01-25T14:19:26;97848.50;;;0.02;80.60
66385;BME280;53426;55.872;37.462;2024-01-25T14:21:53;97862.25;;;0.04;81.09
66385;BME280;53426;55.872;37.462;2024-01-25T14:24:22;97814.78;;;-0.12;81.04
66385;BME280;53426;55.872;37.462;2024-01-25T14:26:57;97859.00;;;0.00;80.82
66385;BME280;53426;55.872;37.462;2024-01-25T14:29:23;97801.47;;;-0.20;80.73
66385;BME280;53426;55.872;37.462;2024-01-25T14:31:49;97735.97;;;-0.51;80.44
66385;BME280;53426;55.872;37.462;2024-01-25T14:34:20;97617.78;;;-1.34;80.50
66385;BME280;53426;55.872;37.462;2024-01-25T14:36:47;97846.31;;;-0.04;80.49
66385;BME280;53426;55.872;37.462;2024-01-25T14:39:14;97820.50;;;-0.20;80.90
66385;BME280;53426;55.872;37.462;2024-01-25T14:41:42;97852.56;;;-0.07;80.41
66385;BME280;53426;55.872;37.462;2024-01-25T14:44:11;97692.81;;;-1.04;80.65